Allegheny, Pennsylvania
Current Conditions -  °F | °C
As of 7:00 AM on Tuesday 21 Oct 2014 (Local Time) from KAGC Reporting Station
Haze Haze  
Wind Chill: 50°   Ceiling: 600
Heat Index: 50°   Visibility: 5mi
Dew Point: 46°   Wind: 9mph
Humidity: 86%   Direction: 230°SW
Pressure: 29.85"   Gusts: NA
Location:  40.4725°N, 80.0082°W
Report Text: KAGC 211100Z 23008KT 5SM BR OVC006 10/08 A2985 RMK AO2 T01000078
Loading
Personal Weather Stations






























Interactive Weather Map
Tropical Storm Tracking
New forecast layout! Learn more

10-Day Weather Forecast

Advertisements
Track Severe Weather on mobile